createdAt,value
2023-02-11T00:01:16.404Z,128.60
2023-02-11T00:03:43.705Z,127.93
2023-02-11T00:06:12.045Z,134.88
2023-02-11T00:08:39.726Z,126.63
2023-02-11T00:11:07.799Z,127.55
2023-02-11T00:13:34.988Z,131.55
2023-02-11T00:16:12.161Z,122.25
2023-02-11T00:18:39.861Z,118.72
2023-02-11T00:21:12.158Z,118.47
2023-02-11T00:23:39.679Z,127.40
2023-02-11T00:26:20.755Z,127.57
2023-02-11T00:28:49.913Z,124.07
2023-02-11T00:31:19.109Z,113.70
2023-02-11T00:33:46.943Z,126.82
2023-02-11T00:36:18.583Z,126.88
2023-02-11T00:38:48.702Z,117.75
2023-02-11T00:41:16.852Z,121.10
2023-02-11T00:43:44.334Z,110.43
2023-02-11T00:46:12.090Z,122.88
2023-02-11T00:48:39.626Z,117.72
2023-02-11T00:51:07.846Z,123.82
2023-02-11T00:53:35.795Z,117.18
2023-02-11T00:56:04.040Z,117.93
2023-02-11T00:58:31.323Z,124.47
2023-02-11T01:00:58.949Z,125.60
2023-02-11T01:03:26.744Z,116.65
2023-02-11T01:05:55.849Z,120.32
2023-02-11T01:08:26.534Z,122.70
2023-02-11T01:10:58.906Z,118.00
2023-02-11T01:13:27.276Z,131.77
2023-02-11T01:15:56.380Z,126.10
2023-02-11T01:18:24.904Z,131.25
2023-02-11T01:20:54.011Z,130.13
2023-02-11T01:23:21.650Z,133.43
2023-02-11T01:25:49.792Z,145.82
2023-02-11T01:28:20.860Z,140.65
2023-02-11T01:30:48.208Z,133.55
2023-02-11T01:33:16.072Z,120.72
2023-02-11T01:35:44.059Z,125.80
2023-02-11T01:38:24.445Z,130.70
2023-02-11T01:41:07.415Z,124.90
2023-02-11T01:43:41.433Z,137.80
2023-02-11T01:46:34.629Z,134.15
2023-02-11T01:49:07.232Z,135.73
2023-02-11T01:51:41.718Z,143.57
2023-02-11T01:54:30.740Z,134.68
2023-02-11T01:57:18.668Z,119.43
2023-02-11T01:59:59.376Z,118.13
2023-02-11T02:02:39.585Z,131.20
2023-02-11T02:05:24.917Z,127.95
2023-02-11T02:08:22.716Z,128.10
2023-02-11T02:10:56.326Z,125.88
2023-02-11T02:13:25.148Z,95.80
2023-02-11T02:16:16.463Z,132.85
2023-02-11T02:19:05.421Z,137.70
2023-02-11T02:21:44.620Z,135.20
2023-02-11T02:24:49.489Z,135.43
2023-02-11T02:27:55.543Z,139.65
2023-02-11T02:30:28.749Z,140.32
2023-02-11T02:33:25.475Z,144.00
2023-02-11T02:36:20.341Z,142.65
2023-02-11T02:41:23.571Z,142.73
2023-02-11T02:43:52.061Z,137.77
2023-02-11T02:46:23.041Z,145.00
2023-02-11T02:48:52.878Z,128.93
2023-02-11T02:51:31.263Z,134.38
2023-02-11T02:54:19.812Z,138.75
2023-02-11T02:57:45.351Z,129.23
2023-02-11T03:00:44.228Z,132.93
2023-02-11T03:03:17.261Z,136.40
2023-02-11T03:06:04.128Z,130.85
2023-02-11T03:09:02.144Z,132.00
2023-02-11T03:11:29.860Z,131.20
2023-02-11T03:14:00.533Z,125.57
2023-02-11T03:16:28.503Z,134.27
2023-02-11T03:19:15.656Z,127.07
2023-02-11T03:21:44.586Z,128.68
2023-02-11T03:24:18.620Z,132.95
2023-02-11T03:26:54.323Z,130.27
2023-02-11T03:29:36.776Z,129.45
2023-02-11T03:32:06.888Z,133.02
2023-02-11T03:34:47.996Z,128.25
2023-02-11T03:37:22.056Z,124.55
2023-02-11T03:40:01.265Z,131.68
2023-02-11T03:42:43.804Z,134.10
2023-02-11T03:45:15.169Z,135.73
2023-02-11T03:47:49.146Z,127.50
2023-02-11T03:50:18.167Z,132.77
2023-02-11T03:52:47.693Z,136.45
2023-02-11T03:55:18.966Z,136.48
2023-02-11T03:57:47.293Z,129.98
2023-02-11T04:00:15.331Z,143.00
2023-02-11T04:02:43.582Z,137.95
2023-02-11T04:05:15.080Z,128.70
2023-02-11T04:07:42.353Z,136.13
2023-02-11T04:10:10.029Z,143.63
2023-02-11T04:12:37.644Z,144.05
2023-02-11T04:15:05.354Z,139.50
2023-02-11T04:17:32.699Z,124.47
2023-02-11T04:19:59.988Z,134.13
2023-02-11T04:22:27.240Z,135.25
2023-02-11T04:24:54.539Z,151.60
2023-02-11T04:27:21.838Z,143.82
2023-02-11T04:29:49.101Z,145.05
2023-02-11T04:32:18.457Z,151.45
2023-02-11T04:34:45.705Z,146.30
2023-02-11T04:37:13.145Z,142.68
2023-02-11T04:39:40.720Z,142.10
2023-02-11T04:42:08.272Z,135.00
2023-02-11T04:44:35.701Z,139.70
2023-02-11T04:47:03.259Z,136.20
2023-02-11T04:49:30.499Z,127.63
2023-02-11T04:51:57.776Z,136.63
2023-02-11T04:54:25.121Z,135.43
2023-02-11T04:56:52.331Z,131.40
2023-02-11T04:59:19.519Z,134.70
2023-02-11T05:01:46.861Z,134.77
2023-02-11T05:04:14.224Z,128.23
2023-02-11T05:06:41.594Z,131.20
2023-02-11T05:09:10.897Z,137.52
2023-02-11T05:11:39.488Z,130.45
2023-02-11T05:14:07.264Z,135.55
2023-02-11T05:16:35.402Z,126.80
2023-02-11T05:19:02.687Z,128.02
2023-02-11T05:21:30.038Z,132.80
2023-02-11T05:23:57.355Z,134.02
2023-02-11T05:26:25.246Z,129.57
2023-02-11T05:28:52.582Z,132.57
2023-02-11T05:31:19.830Z,141.10
2023-02-11T05:33:47.113Z,134.63
2023-02-11T05:36:14.417Z,138.98
2023-02-11T05:38:43.352Z,145.13
2023-02-11T05:41:11.370Z,146.68
2023-02-11T05:43:38.720Z,147.88
2023-02-11T05:46:06.629Z,146.50
2023-02-11T05:48:34.210Z,152.73
2023-02-11T05:51:01.558Z,144.93
2023-02-11T05:53:29.902Z,149.05
2023-02-11T05:55:57.590Z,148.23
2023-02-11T05:58:25.026Z,143.65
2023-02-11T06:00:52.284Z,133.82
2023-02-11T06:03:19.606Z,142.65
2023-02-11T06:05:47.209Z,135.75
2023-02-11T06:08:14.587Z,143.20
2023-02-11T06:10:45.014Z,137.93
2023-02-11T06:13:12.913Z,143.65
2023-02-11T06:15:40.184Z,145.98
2023-02-11T06:18:08.115Z,142.05
2023-02-11T06:20:35.847Z,135.35
2023-02-11T06:23:03.735Z,147.13
2023-02-11T06:25:30.882Z,152.70
2023-02-11T06:27:58.179Z,138.80
2023-02-11T06:30:25.413Z,151.95
2023-02-11T06:32:52.886Z,148.40
2023-02-11T06:35:23.229Z,152.95
2023-02-11T06:37:50.623Z,152.80
2023-02-11T06:40:18.079Z,164.27
2023-02-11T06:42:45.447Z,150.35
2023-02-11T06:45:13.457Z,152.45
2023-02-11T06:47:41.062Z,153.02
2023-02-11T06:50:11.253Z,144.07
2023-02-11T06:52:38.699Z,160.80
2023-02-11T06:55:06.461Z,156.00
2023-02-11T06:57:33.758Z,168.60
2023-02-11T07:00:00.949Z,167.48
2023-02-11T07:02:28.603Z,160.13
2023-02-11T07:04:56.026Z,170.38
2023-02-11T07:07:23.437Z,152.15
2023-02-11T07:09:50.747Z,172.95
2023-02-11T07:12:18.000Z,167.32
2023-02-11T07:14:45.348Z,163.52
2023-02-11T07:17:12.589Z,170.65
2023-02-11T07:19:39.831Z,154.93
2023-02-11T07:22:07.077Z,158.95
2023-02-11T07:24:34.470Z,144.27
2023-02-11T07:27:01.720Z,145.88
2023-02-11T07:29:29.135Z,150.45
2023-02-11T07:31:56.482Z,126.00
2023-02-11T07:34:23.830Z,145.52
2023-02-11T07:36:51.140Z,149.95
2023-02-11T07:39:20.045Z,129.93
2023-02-11T07:41:49.017Z,135.70
2023-02-11T07:44:16.274Z,126.28
2023-02-11T07:46:45.276Z,130.25
2023-02-11T07:49:12.952Z,132.18
2023-02-11T07:51:40.271Z,143.48
2023-02-11T07:54:07.637Z,138.43
2023-02-11T07:56:34.844Z,136.45
2023-02-11T07:59:03.550Z,135.82
2023-02-11T08:01:31.422Z,124.30
2023-02-11T08:04:01.027Z,125.05
2023-02-11T08:06:33.745Z,128.02
2023-02-11T08:09:09.625Z,130.57
2023-02-11T08:11:37.051Z,130.38
2023-02-11T08:14:04.395Z,132.50
2023-02-11T08:16:34.450Z,130.70
2023-02-11T08:19:04.761Z,123.85
2023-02-11T08:21:32.241Z,91.55
2023-02-11T08:24:01.276Z,84.00
2023-02-11T08:26:31.886Z,78.40
2023-02-11T08:28:59.415Z,80.25
2023-02-11T08:31:30.285Z,89.57
2023-02-11T08:34:02.466Z,90.70
2023-02-11T08:36:33.386Z,100.30
2023-02-11T08:39:18.597Z,89.55
2023-02-11T08:41:49.218Z,83.90
2023-02-11T08:44:18.173Z,87.65
2023-02-11T08:46:45.822Z,78.43
2023-02-11T08:49:13.240Z,87.35
2023-02-11T08:51:40.577Z,77.18
2023-02-11T08:54:09.865Z,77.35
2023-02-11T08:56:39.248Z,71.25
2023-02-11T08:59:07.141Z,78.43
2023-02-11T09:01:34.549Z,58.35
2023-02-11T09:04:01.775Z,68.85
2023-02-11T09:06:29.687Z,66.47
2023-02-11T09:08:57.892Z,69.30
2023-02-11T09:11:29.190Z,64.15
2023-02-11T09:13:56.854Z,62.10
2023-02-11T09:16:27.116Z,64.57
2023-02-11T09:18:56.249Z,65.55
2023-02-11T09:21:25.039Z,63.30
2023-02-11T09:23:52.508Z,60.30
2023-02-11T09:26:29.263Z,58.83
2023-02-11T09:28:57.329Z,57.53
2023-02-11T09:31:27.757Z,60.72
2023-02-11T09:33:58.377Z,61.33
2023-02-11T09:36:29.083Z,59.72
2023-02-11T09:38:59.007Z,64.95
2023-02-11T09:41:47.017Z,69.50
2023-02-11T09:44:25.265Z,71.78
2023-02-11T09:47:16.614Z,71.90
2023-02-11T09:49:54.142Z,72.57
2023-02-11T09:52:33.862Z,71.63
2023-02-11T09:55:04.527Z,72.80
2023-02-11T09:57:37.100Z,71.15
2023-02-11T10:00:17.084Z,71.90
2023-02-11T10:03:03.136Z,67.53
2023-02-11T10:05:57.510Z,69.63
2023-02-11T10:08:49.852Z,74.88
2023-02-11T10:11:42.191Z,78.68
2023-02-11T10:14:30.353Z,71.28
2023-02-11T10:17:06.153Z,75.13
2023-02-11T10:20:07.343Z,74.57
2023-02-11T10:22:41.946Z,72.47
2023-02-11T10:25:32.422Z,66.22
2023-02-11T10:28:01.510Z,65.40
2023-02-11T10:30:33.589Z,72.10
2023-02-11T10:33:04.377Z,63.70
2023-02-11T10:35:32.510Z,58.75
2023-02-11T10:38:00.155Z,68.82
2023-02-11T10:40:29.643Z,63.15
2023-02-11T10:43:00.772Z,64.30
2023-02-11T10:45:35.070Z,59.38
2023-02-11T10:50:34.983Z,62.58
2023-02-11T10:53:21.830Z,56.90
2023-02-11T10:55:54.758Z,67.95
2023-02-11T10:58:45.155Z,61.67
2023-02-11T11:01:23.843Z,69.20
2023-02-11T11:03:52.957Z,57.63
2023-02-11T11:06:38.269Z,48.72
2023-02-11T11:09:05.465Z,57.13
2023-02-11T11:11:32.831Z,53.55
2023-02-11T11:14:03.296Z,55.97
2023-02-11T11:16:35.662Z,54.55
2023-02-11T11:19:08.669Z,52.42
2023-02-11T11:21:44.803Z,55.25
2023-02-11T11:24:40.433Z,58.17
2023-02-11T11:27:16.949Z,49.63
2023-02-11T11:29:53.779Z,54.67
2023-02-11T11:32:35.910Z,57.30
2023-02-11T11:35:09.741Z,59.97
2023-02-11T11:37:38.963Z,57.15
2023-02-11T11:40:28.601Z,50.90
2023-02-11T11:43:16.894Z,48.90
2023-02-11T11:45:57.013Z,50.20
2023-02-11T11:48:37.402Z,51.97
2023-02-11T11:51:07.167Z,50.72
2023-02-11T11:54:25.560Z,49.45
2023-02-11T11:57:00.768Z,49.92
2023-02-11T11:59:28.647Z,50.30
2023-02-11T12:02:39.282Z,48.38
2023-02-11T12:05:33.263Z,47.58
2023-02-11T12:08:30.979Z,56.20
2023-02-11T12:11:12.676Z,57.13
2023-02-11T12:14:04.343Z,50.92
2023-02-11T12:16:52.202Z,54.95
2023-02-11T12:19:31.061Z,58.00
2023-02-11T12:22:09.891Z,60.22
2023-02-11T12:24:39.836Z,64.28
2023-02-11T12:27:13.710Z,63.65
2023-02-11T12:30:02.132Z,53.35
2023-02-11T12:32:48.085Z,56.30
2023-02-11T12:35:40.135Z,54.05
2023-02-11T12:38:37.781Z,53.20
2023-02-11T12:41:47.899Z,53.20
2023-02-11T12:44:29.234Z,65.40
2023-02-11T12:47:11.656Z,57.08
2023-02-11T12:50:16.727Z,57.13
2023-02-11T12:53:08.432Z,53.13
2023-02-11T12:55:40.326Z,49.88
2023-02-11T12:58:20.247Z,57.38
2023-02-11T13:00:55.009Z,54.63
2023-02-11T13:03:35.202Z,58.63
2023-02-11T13:06:15.477Z,80.00
2023-02-11T13:09:09.746Z,60.80
2023-02-11T13:11:44.106Z,51.80
2023-02-11T13:14:41.353Z,54.92
2023-02-11T13:17:22.586Z,48.13
2023-02-11T13:19:58.133Z,52.42
2023-02-11T13:22:41.446Z,43.95
2023-02-11T13:25:11.419Z,45.95
2023-02-11T13:27:45.588Z,44.00
2023-02-11T13:30:33.632Z,36.67
2023-02-11T13:33:01.077Z,37.22
2023-02-11T13:35:37.052Z,34.25
2023-02-11T13:38:22.932Z,38.25
2023-02-11T13:41:33.689Z,34.67
2023-02-11T13:44:11.357Z,32.88
2023-02-11T13:46:58.342Z,27.33
2023-02-11T13:49:42.976Z,28.38
2023-02-11T13:52:37.638Z,31.65
2023-02-11T13:55:13.994Z,33.63
2023-02-11T13:57:42.045Z,30.60
2023-02-11T14:00:47.059Z,31.00
2023-02-11T14:03:32.910Z,27.10
2023-02-11T14:06:27.320Z,34.25
2023-02-11T14:09:09.592Z,28.65
2023-02-11T14:11:45.424Z,27.08
2023-02-11T14:14:25.313Z,34.78
2023-02-11T14:17:01.677Z,33.95
2023-02-11T14:19:40.224Z,31.10
2023-02-11T14:22:28.742Z,33.75
2023-02-11T14:25:01.591Z,32.65
2023-02-11T14:27:54.617Z,38.95
2023-02-11T14:30:24.752Z,40.88
2023-02-11T14:32:58.606Z,34.72
2023-02-11T14:35:53.376Z,27.38
2023-02-11T14:38:35.177Z,37.55
2023-02-11T14:41:23.082Z,40.33
2023-02-11T14:44:04.616Z,40.35
2023-02-11T14:46:33.738Z,45.92
2023-02-11T14:49:03.881Z,40.42
2023-02-11T14:51:32.174Z,42.22
2023-02-11T14:54:18.948Z,40.97
2023-02-11T14:56:46.962Z,40.08
2023-02-11T14:59:22.488Z,49.47
2023-02-11T15:01:51.521Z,47.20
2023-02-11T15:04:34.628Z,47.03
2023-02-11T15:07:08.461Z,49.28
2023-02-11T15:09:49.053Z,48.08
2023-02-11T15:12:28.974Z,44.28
2023-02-11T15:14:59.024Z,45.80
2023-02-11T15:17:30.037Z,46.30
2023-02-11T15:20:00.410Z,48.65
2023-02-11T15:22:38.195Z,48.40
2023-02-11T15:25:08.496Z,48.92
2023-02-11T15:27:41.554Z,49.95
2023-02-11T15:30:23.785Z,46.45
2023-02-11T15:33:03.503Z,48.25
2023-02-11T15:35:35.195Z,52.20
2023-02-11T15:38:02.818Z,56.63
2023-02-11T15:40:33.194Z,61.45
2023-02-11T15:43:03.387Z,55.15
2023-02-11T15:45:30.602Z,69.15
2023-02-11T15:48:20.290Z,70.13
2023-02-11T15:50:56.677Z,58.30
2023-02-11T15:53:29.969Z,61.72
2023-02-11T15:56:11.050Z,66.82
2023-02-11T15:58:40.950Z,60.75
2023-02-11T16:01:09.967Z,60.55
2023-02-11T16:03:37.251Z,55.53
2023-02-11T16:06:24.163Z,57.97
2023-02-11T16:09:23.293Z,54.85
2023-02-11T16:11:50.440Z,61.55
2023-02-11T16:14:39.189Z,57.30
2023-02-11T16:17:18.566Z,57.90
2023-02-11T16:19:47.814Z,61.42
2023-02-11T16:22:24.428Z,57.72
2023-02-11T16:24:54.884Z,65.38
2023-02-11T16:27:30.567Z,64.97
2023-02-11T16:29:58.735Z,56.92
2023-02-11T16:32:28.747Z,55.78
2023-02-11T16:34:58.880Z,59.33
2023-02-11T16:37:26.664Z,57.35
2023-02-11T16:39:55.260Z,56.05
2023-02-11T16:42:23.397Z,57.05
2023-02-11T16:44:50.698Z,58.05
2023-02-11T16:47:23.564Z,58.33
2023-02-11T16:49:51.035Z,52.75
2023-02-11T16:52:20.357Z,55.00
2023-02-11T16:54:48.026Z,57.42
2023-02-11T16:57:17.897Z,59.95
2023-02-11T16:59:45.456Z,59.20
2023-02-11T17:02:31.201Z,57.70
2023-02-11T17:05:04.647Z,69.00
2023-02-11T17:07:32.095Z,61.90
2023-02-11T17:09:59.925Z,59.25
2023-02-11T17:12:27.214Z,63.88
2023-02-11T17:14:54.517Z,79.63
2023-02-11T17:17:23.912Z,85.78
2023-02-11T17:19:51.459Z,78.32
2023-02-11T17:22:18.982Z,84.78
2023-02-11T17:24:46.261Z,93.40
2023-02-11T17:27:13.902Z,100.65
2023-02-11T17:29:41.218Z,119.32
2023-02-11T17:32:09.420Z,120.25
2023-02-11T17:34:36.647Z,108.45
2023-02-11T17:37:09.154Z,97.10
2023-02-11T17:39:38.181Z,88.53
2023-02-11T17:42:06.613Z,91.80
2023-02-11T17:44:34.262Z,87.15
2023-02-11T17:47:01.500Z,85.95
2023-02-11T17:49:28.862Z,90.53
2023-02-11T17:51:56.575Z,94.07
2023-02-11T17:54:24.864Z,86.78
2023-02-11T17:56:55.114Z,80.90
2023-02-11T17:59:25.527Z,92.15
2023-02-11T18:01:52.904Z,110.63
2023-02-11T18:04:20.591Z,103.40
2023-02-11T18:06:47.976Z,96.93
2023-02-11T18:09:18.148Z,120.22
2023-02-11T18:11:46.152Z,104.97
2023-02-11T18:14:13.386Z,98.43
2023-02-11T18:16:43.252Z,151.05
2023-02-11T18:19:12.080Z,112.47
2023-02-11T18:21:39.642Z,119.85
2023-02-11T18:24:07.386Z,138.07
2023-02-11T18:26:35.390Z,129.38
2023-02-11T18:29:03.958Z,125.32
2023-02-11T18:31:31.578Z,158.80
2023-02-11T18:33:59.825Z,134.68
2023-02-11T18:36:27.172Z,123.72
2023-02-11T18:38:54.478Z,129.88
2023-02-11T18:41:22.648Z,116.47
2023-02-11T18:43:50.066Z,126.88
2023-02-11T18:46:17.615Z,120.20
2023-02-11T18:48:45.202Z,114.32
2023-02-11T18:51:16.017Z,111.20
2023-02-11T18:53:43.654Z,119.57
2023-02-11T18:56:14.142Z,111.57
2023-02-11T18:58:41.511Z,109.63
2023-02-11T19:01:27.509Z,98.25
2023-02-11T19:03:59.939Z,113.95
2023-02-11T19:06:29.191Z,104.28
2023-02-11T19:09:00.155Z,97.00
2023-02-11T19:11:49.002Z,98.43
2023-02-11T19:14:20.277Z,103.63
2023-02-11T19:16:50.650Z,107.80
2023-02-11T19:19:18.409Z,118.85
2023-02-11T19:21:47.422Z,119.22
2023-02-11T19:24:18.933Z,113.15
2023-02-11T19:26:47.742Z,108.80
2023-02-11T19:29:15.555Z,111.30
2023-02-11T19:31:43.603Z,119.90
2023-02-11T19:34:13.413Z,134.07
2023-02-11T19:36:41.172Z,134.48
2023-02-11T19:39:09.074Z,149.48
2023-02-11T19:41:36.341Z,149.15
2023-02-11T19:44:05.080Z,151.43
2023-02-11T19:46:35.700Z,155.23
2023-02-11T19:49:04.486Z,162.82
2023-02-11T19:51:37.552Z,141.43
2023-02-11T19:54:06.913Z,133.13
2023-02-11T19:56:34.204Z,116.03
2023-02-11T19:59:02.914Z,137.23
2023-02-11T20:01:30.496Z,139.25
2023-02-11T20:03:57.809Z,132.50
2023-02-11T20:06:29.075Z,131.10
2023-02-11T20:09:11.239Z,118.28
2023-02-11T20:11:39.147Z,114.75
2023-02-11T20:14:07.088Z,119.10
2023-02-11T20:16:47.534Z,138.63
2023-02-11T20:19:18.715Z,131.05
2023-02-11T20:21:48.263Z,143.75
2023-02-11T20:24:17.603Z,131.40
2023-02-11T20:26:46.647Z,125.03
2023-02-11T20:29:15.450Z,122.72
2023-02-11T20:31:43.263Z,126.97
2023-02-11T20:34:11.963Z,127.93
2023-02-11T20:36:40.683Z,123.82
2023-02-11T20:39:11.660Z,128.50
2023-02-11T20:41:40.029Z,124.32
2023-02-11T20:44:10.031Z,124.38
2023-02-11T20:46:40.366Z,131.82
2023-02-11T20:49:08.839Z,127.75
2023-02-11T20:51:37.447Z,134.40
2023-02-11T20:54:06.380Z,121.90
2023-02-11T20:56:36.854Z,122.25
2023-02-11T20:59:05.315Z,118.30
2023-02-11T21:01:35.784Z,119.25
2023-02-11T21:04:06.622Z,114.30
2023-02-11T21:06:39.783Z,107.65
2023-02-11T21:09:09.352Z,109.88
2023-02-11T21:11:36.897Z,112.43
2023-02-11T21:14:04.178Z,109.50
2023-02-11T21:16:32.740Z,111.43
2023-02-11T21:19:00.668Z,104.97
2023-02-11T21:21:27.953Z,111.13
2023-02-11T21:23:56.193Z,102.70
2023-02-11T21:26:23.444Z,107.10
2023-02-11T21:28:52.021Z,109.80
2023-02-11T21:31:22.280Z,100.32
2023-02-11T21:33:50.900Z,99.90
2023-02-11T21:36:18.418Z,98.72
2023-02-11T21:38:45.814Z,101.63
2023-02-11T21:41:13.298Z,100.95
2023-02-11T21:43:40.560Z,102.30
2023-02-11T21:46:10.565Z,96.25
2023-02-11T21:48:38.232Z,95.82
2023-02-11T21:51:08.067Z,115.38
2023-02-11T21:53:35.975Z,112.40
2023-02-11T21:56:12.332Z,101.03
2023-02-11T21:58:39.653Z,93.45
2023-02-11T22:01:22.084Z,100.03
2023-02-11T22:03:49.947Z,94.78
2023-02-11T22:06:23.099Z,96.68
2023-02-11T22:08:50.998Z,102.07
2023-02-11T22:11:18.757Z,88.32
2023-02-11T22:13:46.985Z,92.85
2023-02-11T22:16:16.394Z,86.20
2023-02-11T22:18:46.598Z,88.82
2023-02-11T22:21:17.736Z,79.00
2023-02-11T22:23:45.496Z,93.43
2023-02-11T22:26:16.104Z,88.82
2023-02-11T22:28:44.204Z,89.72
2023-02-11T22:31:19.796Z,97.75
2023-02-11T22:33:47.690Z,93.95
2023-02-11T22:36:19.325Z,89.15
2023-02-11T22:38:47.406Z,92.40
2023-02-11T22:41:15.234Z,89.63
2023-02-11T22:43:43.573Z,97.78
2023-02-11T22:46:14.087Z,96.32
2023-02-11T22:48:41.966Z,95.00
2023-02-11T22:51:11.970Z,100.70
2023-02-11T22:53:39.162Z,93.65
2023-02-11T22:56:08.716Z,98.28
2023-02-11T22:58:37.064Z,99.88
2023-02-11T23:01:05.389Z,102.68
2023-02-11T23:03:33.854Z,102.65
2023-02-11T23:06:01.483Z,101.72
2023-02-11T23:08:30.362Z,96.65
2023-02-11T23:11:12.951Z,100.82
2023-02-11T23:13:41.700Z,102.05
2023-02-11T23:16:12.713Z,97.60
2023-02-11T23:18:42.088Z,103.05
2023-02-11T23:21:18.148Z,104.32
2023-02-11T23:23:45.780Z,104.85
2023-02-11T23:26:14.998Z,100.80
2023-02-11T23:28:45.154Z,113.13
2023-02-11T23:31:17.880Z,102.93
2023-02-11T23:33:46.262Z,107.97
2023-02-11T23:36:14.490Z,100.10
2023-02-11T23:38:42.182Z,93.57
2023-02-11T23:41:10.458Z,98.28
2023-02-11T23:43:37.882Z,98.05
2023-02-11T23:46:05.989Z,98.47
2023-02-11T23:48:36.015Z,102.82
2023-02-11T23:51:04.447Z,102.78
2023-02-11T23:53:31.640Z,96.60
2023-02-11T23:55:58.893Z,104.82
2023-02-11T23:58:26.200Z,101.32
